createdAt,value
2022-10-26T00:00:29.428Z,9.81
2022-10-26T00:01:31.696Z,9.81
2022-10-26T00:02:34.071Z,9.80
2022-10-26T00:03:37.616Z,9.79
2022-10-26T00:04:39.807Z,9.80
2022-10-26T00:05:42.460Z,9.78
2022-10-26T00:06:44.634Z,9.78
2022-10-26T00:07:46.829Z,9.78
2022-10-26T00:08:49.736Z,9.75
2022-10-26T00:09:51.933Z,9.74
2022-10-26T00:10:57.907Z,9.74
2022-10-26T00:12:00.116Z,9.73
2022-10-26T00:13:02.658Z,9.74
2022-10-26T00:14:04.924Z,9.73
2022-10-26T00:15:08.075Z,9.72
2022-10-26T00:16:15.487Z,9.73
2022-10-26T00:17:17.669Z,9.71
2022-10-26T00:18:19.971Z,9.70
2022-10-26T00:19:22.368Z,9.68
2022-10-26T00:20:24.608Z,9.69
2022-10-26T00:21:28.019Z,9.67
2022-10-26T00:22:30.212Z,9.66
2022-10-26T00:23:32.670Z,9.66
2022-10-26T00:24:34.881Z,9.65
2022-10-26T00:25:37.237Z,9.63
2022-10-26T00:26:39.933Z,9.63
2022-10-26T00:27:42.166Z,9.62
2022-10-26T00:28:44.495Z,9.61
2022-10-26T00:29:46.645Z,9.60
2022-10-26T00:30:48.941Z,9.59
2022-10-26T00:31:51.105Z,9.58
2022-10-26T00:32:53.648Z,9.58
2022-10-26T00:33:57.099Z,9.57
2022-10-26T00:35:10.309Z,9.55
2022-10-26T00:36:23.129Z,9.56
2022-10-26T00:37:26.318Z,9.55
2022-10-26T00:38:30.396Z,9.54
2022-10-26T00:39:32.602Z,9.54
2022-10-26T00:40:34.958Z,9.54
2022-10-26T00:41:37.216Z,9.52
2022-10-26T00:42:39.623Z,9.51
2022-10-26T00:43:41.841Z,9.51
2022-10-26T00:44:47.059Z,9.51
2022-10-26T00:45:55.963Z,9.50
2022-10-26T00:46:58.277Z,9.48
2022-10-26T00:48:05.408Z,9.48
2022-10-26T00:49:17.120Z,9.48
2022-10-26T00:50:49.227Z,9.48
2022-10-26T00:51:54.008Z,9.47
2022-10-26T00:52:59.078Z,9.47
2022-10-26T00:54:05.701Z,9.45
2022-10-26T00:55:10.216Z,9.44
2022-10-26T00:56:12.771Z,9.44
2022-10-26T00:57:17.656Z,9.42
2022-10-26T00:58:22.109Z,9.40
2022-10-26T00:59:24.452Z,9.40
2022-10-26T01:00:26.649Z,9.38
2022-10-26T01:01:32.061Z,9.37
2022-10-26T01:02:34.289Z,9.37
2022-10-26T01:03:38.237Z,9.35
2022-10-26T01:04:40.729Z,9.34
2022-10-26T01:05:45.406Z,9.33
2022-10-26T01:06:48.813Z,9.34
2022-10-26T01:07:52.134Z,9.32
2022-10-26T01:08:54.925Z,9.31
2022-10-26T01:09:57.195Z,9.31
2022-10-26T01:11:00.461Z,9.30
2022-10-26T01:12:02.640Z,9.30
2022-10-26T01:13:06.060Z,9.30
2022-10-26T01:14:10.214Z,9.30
2022-10-26T01:15:13.643Z,9.28
2022-10-26T01:16:46.846Z,9.26
2022-10-26T01:18:11.857Z,9.27
2022-10-26T01:19:19.729Z,9.25
2022-10-26T01:20:47.027Z,9.23
2022-10-26T01:21:57.083Z,9.21
2022-10-26T01:23:23.607Z,9.20
2022-10-26T01:24:34.670Z,9.20
2022-10-26T01:26:08.019Z,9.19
2022-10-26T01:27:13.244Z,9.17
2022-10-26T01:28:40.491Z,9.16
2022-10-26T01:30:18.056Z,9.15
2022-10-26T01:31:29.624Z,9.13
2022-10-26T01:32:40.604Z,9.13
2022-10-26T01:33:47.889Z,9.10
2022-10-26T01:35:06.184Z,9.09
2022-10-26T01:36:08.459Z,9.09
2022-10-26T01:37:25.246Z,9.07
2022-10-26T01:38:58.829Z,9.08
2022-10-26T01:40:17.790Z,9.07
2022-10-26T01:41:28.798Z,9.05
2022-10-26T01:42:32.042Z,9.05
2022-10-26T01:43:40.861Z,9.05
2022-10-26T01:44:52.023Z,9.04
2022-10-26T01:45:55.425Z,9.03
2022-10-26T01:46:59.775Z,9.03
2022-10-26T01:48:03.636Z,9.02
2022-10-26T01:49:12.038Z,8.99
2022-10-26T01:50:15.252Z,8.99
2022-10-26T01:51:18.707Z,8.99
2022-10-26T01:52:21.865Z,8.98
2022-10-26T01:53:26.603Z,8.97
2022-10-26T01:54:30.204Z,8.96
2022-10-26T01:55:49.402Z,8.96
2022-10-26T01:57:00.907Z,8.97
2022-10-26T01:58:17.008Z,8.95
2022-10-26T01:59:24.092Z,8.95
2022-10-26T02:00:26.269Z,8.95
2022-10-26T02:01:42.545Z,8.95
2022-10-26T02:02:59.838Z,8.94
2022-10-26T02:04:26.968Z,8.92
2022-10-26T02:05:35.268Z,8.91
2022-10-26T02:07:11.244Z,8.91
2022-10-26T02:08:37.564Z,8.90
2022-10-26T02:10:07.404Z,8.88
2022-10-26T02:11:48.742Z,8.86
2022-10-26T02:13:18.676Z,8.86
2022-10-26T02:14:23.958Z,8.85
2022-10-26T02:15:40.032Z,8.85
2022-10-26T02:16:51.259Z,8.84
2022-10-26T02:18:25.793Z,8.82
2022-10-26T02:19:27.892Z,8.82
2022-10-26T02:20:55.917Z,8.80
2022-10-26T02:22:06.100Z,8.79
2022-10-26T02:23:10.690Z,8.77
2022-10-26T02:24:15.767Z,8.77
2022-10-26T02:25:24.522Z,8.75
2022-10-26T02:26:30.935Z,8.76
2022-10-26T02:27:37.200Z,8.75
2022-10-26T02:28:45.015Z,8.75
2022-10-26T02:29:50.555Z,8.74
2022-10-26T02:30:57.015Z,8.72
2022-10-26T02:32:00.810Z,8.72
2022-10-26T02:33:05.979Z,8.70
2022-10-26T02:34:13.466Z,8.70
2022-10-26T02:35:19.078Z,8.69
2022-10-26T02:36:28.690Z,8.70
2022-10-26T02:37:34.289Z,8.69
2022-10-26T02:38:39.095Z,8.70
2022-10-26T02:39:43.492Z,8.68
2022-10-26T02:40:48.634Z,8.69
2022-10-26T02:41:52.281Z,8.68
2022-10-26T02:42:58.814Z,8.68
2022-10-26T02:44:08.697Z,8.66
2022-10-26T02:45:14.152Z,8.66
2022-10-26T02:46:20.453Z,8.65
2022-10-26T02:47:22.702Z,8.66
2022-10-26T02:48:28.142Z,8.65
2022-10-26T02:49:30.416Z,8.65
2022-10-26T02:50:43.224Z,8.65
2022-10-26T02:51:51.397Z,8.64
2022-10-26T02:53:00.496Z,8.62
2022-10-26T02:54:24.769Z,8.62
2022-10-26T02:55:40.624Z,8.65
2022-10-26T02:56:58.814Z,8.62
2022-10-26T02:58:04.855Z,8.61
2022-10-26T02:59:11.068Z,8.62
2022-10-26T03:00:17.068Z,8.60
2022-10-26T03:01:19.512Z,8.61
2022-10-26T03:02:22.925Z,8.61
2022-10-26T03:03:25.552Z,8.59
2022-10-26T03:04:32.612Z,8.59
2022-10-26T03:05:36.920Z,8.58
2022-10-26T03:06:39.113Z,8.58
2022-10-26T03:07:41.370Z,8.55
2022-10-26T03:08:43.537Z,8.56
2022-10-26T03:09:45.684Z,8.55
2022-10-26T03:10:47.902Z,8.53
2022-10-26T03:11:50.113Z,8.53
2022-10-26T03:12:52.712Z,8.52
2022-10-26T03:13:55.069Z,8.53
2022-10-26T03:14:57.298Z,8.52
2022-10-26T03:15:59.470Z,8.51
2022-10-26T03:17:01.719Z,8.51
2022-10-26T03:18:05.846Z,8.51
2022-10-26T03:19:08.108Z,8.50
2022-10-26T03:20:12.383Z,8.50
2022-10-26T03:21:14.659Z,8.49
2022-10-26T03:22:16.838Z,8.48
2022-10-26T03:23:19.017Z,8.47
2022-10-26T03:24:21.186Z,8.47
2022-10-26T03:25:24.835Z,8.47
2022-10-26T03:26:27.056Z,8.45
2022-10-26T03:27:30.054Z,8.46
2022-10-26T03:28:32.288Z,8.45
2022-10-26T03:29:34.447Z,8.44
2022-10-26T03:30:36.651Z,8.43
2022-10-26T03:31:38.979Z,8.43
2022-10-26T03:32:41.178Z,8.42
2022-10-26T03:33:46.707Z,8.43
2022-10-26T03:34:48.932Z,8.43
2022-10-26T03:35:56.802Z,8.42
2022-10-26T03:36:59.053Z,8.42
2022-10-26T03:38:01.271Z,8.41
2022-10-26T03:39:03.487Z,8.41
2022-10-26T03:40:06.164Z,8.41
2022-10-26T03:41:08.360Z,8.41
2022-10-26T03:42:10.544Z,8.40
2022-10-26T03:43:12.728Z,8.40
2022-10-26T03:44:14.937Z,8.40
2022-10-26T03:45:17.286Z,8.39
2022-10-26T03:46:19.482Z,8.38
2022-10-26T03:47:21.664Z,8.38
2022-10-26T03:48:23.863Z,8.38
2022-10-26T03:49:26.036Z,8.38
2022-10-26T03:50:28.174Z,8.38
2022-10-26T03:51:30.682Z,8.38
2022-10-26T03:52:32.903Z,8.38
2022-10-26T03:53:35.072Z,8.37
2022-10-26T03:54:37.331Z,8.37
2022-10-26T03:55:39.487Z,8.37
2022-10-26T03:56:41.677Z,8.36
2022-10-26T03:57:45.441Z,8.37
2022-10-26T03:58:47.662Z,8.34
2022-10-26T03:59:49.830Z,8.35
2022-10-26T04:00:52.139Z,8.34
2022-10-26T04:01:56.906Z,8.35
2022-10-26T04:03:00.411Z,8.34
2022-10-26T04:04:02.753Z,8.34
2022-10-26T04:05:05.450Z,8.33
2022-10-26T04:06:07.938Z,8.33
2022-10-26T04:07:11.125Z,8.32
2022-10-26T04:08:13.482Z,8.31
2022-10-26T04:09:15.671Z,8.31
2022-10-26T04:10:17.970Z,8.31
2022-10-26T04:11:20.239Z,8.31
2022-10-26T04:12:22.507Z,8.30
2022-10-26T04:13:24.810Z,8.29
2022-10-26T04:14:27.092Z,8.28
2022-10-26T04:15:29.788Z,8.28
2022-10-26T04:16:33.441Z,8.27
2022-10-26T04:17:35.929Z,8.27
2022-10-26T04:18:40.377Z,8.27
2022-10-26T04:19:42.617Z,8.26
2022-10-26T04:20:52.414Z,8.27
2022-10-26T04:21:54.947Z,8.25
2022-10-26T04:23:05.812Z,8.25
2022-10-26T04:24:08.128Z,8.25
2022-10-26T04:25:11.487Z,8.23
2022-10-26T04:26:13.700Z,8.22
2022-10-26T04:27:15.998Z,8.22
2022-10-26T04:28:18.226Z,8.21
2022-10-26T04:29:20.427Z,8.20
2022-10-26T04:30:22.784Z,8.20
2022-10-26T04:31:24.984Z,8.19
2022-10-26T04:32:27.360Z,8.19
2022-10-26T04:33:29.600Z,8.17
2022-10-26T04:34:31.783Z,8.17
2022-10-26T04:35:38.506Z,8.17
2022-10-26T04:36:40.781Z,8.18
2022-10-26T04:37:43.089Z,8.17
2022-10-26T04:38:45.256Z,8.18
2022-10-26T04:39:47.476Z,8.16
2022-10-26T04:40:51.020Z,8.16
2022-10-26T04:41:54.678Z,8.15
2022-10-26T04:42:57.142Z,8.15
2022-10-26T04:43:59.463Z,8.16
2022-10-26T04:45:01.690Z,8.15
2022-10-26T04:46:03.938Z,8.15
2022-10-26T04:47:06.088Z,8.15
2022-10-26T04:48:11.882Z,8.14
2022-10-26T04:49:14.656Z,8.12
2022-10-26T04:50:16.948Z,8.12
2022-10-26T04:51:20.071Z,8.11
2022-10-26T04:52:22.317Z,8.11
2022-10-26T04:53:24.506Z,8.11
2022-10-26T04:54:26.698Z,8.11
2022-10-26T04:55:28.907Z,8.10
2022-10-26T04:56:31.064Z,8.10
2022-10-26T04:57:36.214Z,8.10
2022-10-26T04:58:38.403Z,8.09
2022-10-26T04:59:40.567Z,8.09
2022-10-26T05:00:42.882Z,8.09
2022-10-26T05:01:45.195Z,8.08
2022-10-26T05:02:49.889Z,8.08
2022-10-26T05:03:53.169Z,8.06
2022-10-26T05:04:55.748Z,8.07
2022-10-26T05:05:59.820Z,8.05
2022-10-26T05:07:02.021Z,8.03
2022-10-26T05:08:04.665Z,8.03
2022-10-26T05:09:07.025Z,8.03
2022-10-26T05:10:10.210Z,8.02
2022-10-26T05:11:12.495Z,8.02
2022-10-26T05:12:14.656Z,8.01
2022-10-26T05:13:17.543Z,8.02
2022-10-26T05:14:19.841Z,8.00
2022-10-26T05:15:22.377Z,8.00
2022-10-26T05:16:24.605Z,8.01
2022-10-26T05:17:26.940Z,8.00
2022-10-26T05:18:29.253Z,7.99
2022-10-26T05:19:31.472Z,8.00
2022-10-26T05:20:36.002Z,7.99
2022-10-26T05:21:38.388Z,7.99
2022-10-26T05:22:41.418Z,7.98
2022-10-26T05:23:43.606Z,7.95
2022-10-26T05:24:45.902Z,7.95
2022-10-26T05:25:48.694Z,7.95
2022-10-26T05:26:50.852Z,7.94
2022-10-26T05:27:57.658Z,7.94
2022-10-26T05:28:59.886Z,7.94
2022-10-26T05:30:02.202Z,7.93
2022-10-26T05:31:04.687Z,7.94
2022-10-26T05:32:06.871Z,7.93
2022-10-26T05:33:10.780Z,7.94
2022-10-26T05:34:13.002Z,7.93
2022-10-26T05:35:15.205Z,7.92
2022-10-26T05:36:20.939Z,7.92
2022-10-26T05:37:23.118Z,7.92
2022-10-26T05:39:47.647Z,7.89
2022-10-26T05:40:54.571Z,7.89
2022-10-26T05:41:56.772Z,7.87
2022-10-26T05:43:03.550Z,7.86
2022-10-26T05:44:05.822Z,7.86
2022-10-26T05:45:08.395Z,7.84
2022-10-26T05:46:10.648Z,7.85
2022-10-26T05:47:12.980Z,7.85
2022-10-26T05:48:15.185Z,7.85
2022-10-26T05:49:17.442Z,7.83
2022-10-26T05:50:19.900Z,7.79
2022-10-26T05:51:22.100Z,7.80
2022-10-26T05:52:24.336Z,7.78
2022-10-26T05:53:26.999Z,7.79
2022-10-26T05:54:29.173Z,7.78
2022-10-26T05:55:31.794Z,7.79
2022-10-26T05:56:35.084Z,7.79
2022-10-26T05:57:37.973Z,7.79
2022-10-26T05:58:40.494Z,7.79
2022-10-26T05:59:43.008Z,7.79
2022-10-26T06:00:55.503Z,7.79
2022-10-26T06:02:00.814Z,7.78
2022-10-26T06:03:16.634Z,7.79
2022-10-26T06:04:38.925Z,7.79
2022-10-26T06:05:56.056Z,7.79
2022-10-26T06:06:59.846Z,7.80
2022-10-26T06:08:02.421Z,7.78
2022-10-26T06:09:04.853Z,7.78
2022-10-26T06:10:07.721Z,7.79
2022-10-26T06:11:10.641Z,7.78
2022-10-26T06:12:19.249Z,7.78
2022-10-26T06:13:22.750Z,7.77
2022-10-26T06:14:25.382Z,7.79
2022-10-26T06:15:29.211Z,7.78
2022-10-26T06:16:50.310Z,7.79
2022-10-26T06:18:22.282Z,7.78
2022-10-26T06:19:51.413Z,7.79
2022-10-26T06:21:24.368Z,7.79
2022-10-26T06:22:50.916Z,7.80
2022-10-26T06:24:05.641Z,7.80
2022-10-26T06:25:16.780Z,7.80
2022-10-26T06:26:27.992Z,7.81
2022-10-26T06:27:30.131Z,7.82
2022-10-26T06:29:02.337Z,7.81
2022-10-26T06:30:12.241Z,7.82
2022-10-26T06:31:14.734Z,7.83
2022-10-26T06:32:17.781Z,7.86
2022-10-26T06:33:35.770Z,7.89
2022-10-26T06:34:43.205Z,7.89
2022-10-26T06:35:45.650Z,7.92
2022-10-26T06:36:49.828Z,7.94
2022-10-26T06:37:54.279Z,7.97
2022-10-26T06:39:10.255Z,8.00
2022-10-26T06:40:16.045Z,8.03
2022-10-26T06:41:20.069Z,8.07
2022-10-26T06:42:22.786Z,8.11
2022-10-26T06:43:26.217Z,8.15
2022-10-26T06:44:29.032Z,8.18
2022-10-26T06:45:32.188Z,8.22
2022-10-26T06:47:09.869Z,8.30
2022-10-26T06:48:20.438Z,8.37
2022-10-26T06:49:35.122Z,8.44
2022-10-26T06:50:43.388Z,8.51
2022-10-26T06:52:04.395Z,8.59
2022-10-26T06:53:43.396Z,8.69
2022-10-26T06:54:54.633Z,8.78
2022-10-26T06:55:59.169Z,8.86
2022-10-26T06:57:01.525Z,8.93
2022-10-26T06:58:04.656Z,9.01
2022-10-26T06:59:14.594Z,9.09
2022-10-26T07:00:21.206Z,9.16
2022-10-26T07:01:23.682Z,9.22
2022-10-26T07:02:26.439Z,9.31
2022-10-26T07:03:28.805Z,9.40
2022-10-26T07:04:31.098Z,9.46
2022-10-26T07:05:33.770Z,9.54
2022-10-26T07:06:38.480Z,9.62
2022-10-26T07:07:44.146Z,9.71
2022-10-26T07:08:46.585Z,9.80
2022-10-26T07:09:49.650Z,9.87
2022-10-26T07:10:51.943Z,9.97
2022-10-26T07:11:54.128Z,10.06
2022-10-26T07:12:56.538Z,10.14
2022-10-26T07:14:01.282Z,10.22
2022-10-26T07:15:04.570Z,10.31
2022-10-26T07:16:06.996Z,10.42
2022-10-26T07:17:10.037Z,10.49
2022-10-26T07:18:12.296Z,10.60
2022-10-26T07:19:14.570Z,10.68
2022-10-26T07:20:18.829Z,10.78
2022-10-26T07:21:24.152Z,10.86
2022-10-26T07:22:26.376Z,10.94
2022-10-26T07:24:51.724Z,11.15
2022-10-26T07:25:53.989Z,11.22
2022-10-26T07:26:57.338Z,11.32
2022-10-26T07:28:00.337Z,11.41
2022-10-26T07:29:02.824Z,11.48
2022-10-26T07:30:05.616Z,11.58
2022-10-26T07:31:07.880Z,11.67
2022-10-26T07:32:10.097Z,11.76
2022-10-26T07:33:14.121Z,11.84
2022-10-26T07:34:36.310Z,11.92
2022-10-26T07:35:38.955Z,12.01
2022-10-26T07:36:41.222Z,12.10
2022-10-26T07:37:43.392Z,12.19
2022-10-26T07:38:45.660Z,12.29
2022-10-26T07:39:47.885Z,12.40
2022-10-26T07:40:50.615Z,12.47
2022-10-26T07:41:52.967Z,12.57
2022-10-26T07:42:59.791Z,12.65
2022-10-26T07:44:02.384Z,12.72
2022-10-26T07:45:05.821Z,12.81
2022-10-26T07:46:08.058Z,12.88
2022-10-26T07:47:10.317Z,12.92
2022-10-26T07:48:12.530Z,12.98
2022-10-26T07:49:17.624Z,13.05
2022-10-26T07:50:22.594Z,13.10
2022-10-26T07:51:26.790Z,13.14
2022-10-26T07:52:28.958Z,13.18
2022-10-26T07:53:31.485Z,13.24
2022-10-26T07:54:33.740Z,13.28
2022-10-26T07:55:35.944Z,13.29
2022-10-26T07:56:38.184Z,13.32
2022-10-26T07:57:40.561Z,13.35
2022-10-26T07:58:42.929Z,13.38
2022-10-26T07:59:45.104Z,13.39
2022-10-26T08:00:47.286Z,13.39
2022-10-26T08:01:49.708Z,13.41
2022-10-26T08:02:52.085Z,13.42
2022-10-26T08:03:55.387Z,13.44
2022-10-26T08:04:57.605Z,13.44
2022-10-26T08:05:59.862Z,13.45
2022-10-26T08:07:02.045Z,13.45
2022-10-26T08:08:05.769Z,13.47
2022-10-26T08:09:07.996Z,13.43
2022-10-26T08:10:12.061Z,13.42
2022-10-26T08:11:15.188Z,13.40
2022-10-26T08:12:17.519Z,13.37
2022-10-26T08:13:19.691Z,13.35
2022-10-26T08:14:21.993Z,13.33
2022-10-26T08:15:24.189Z,13.32
2022-10-26T08:16:26.514Z,13.31
2022-10-26T08:17:29.737Z,13.29
2022-10-26T08:18:32.388Z,13.26
2022-10-26T08:19:36.132Z,13.24
2022-10-26T08:20:38.348Z,13.23
2022-10-26T08:21:40.833Z,13.20
2022-10-26T08:22:43.084Z,13.17
2022-10-26T08:23:45.545Z,13.16
2022-10-26T08:24:47.746Z,13.13
2022-10-26T08:25:49.968Z,13.12
2022-10-26T08:26:52.191Z,13.11
2022-10-26T08:27:54.596Z,13.10
2022-10-26T08:28:56.790Z,13.10
2022-10-26T08:29:58.988Z,13.09
2022-10-26T08:31:01.246Z,13.08
2022-10-26T08:32:03.544Z,13.09
2022-10-26T08:33:08.565Z,13.11
2022-10-26T08:34:10.780Z,13.14
2022-10-26T08:35:14.739Z,13.17
2022-10-26T08:36:24.353Z,13.21
2022-10-26T08:37:27.330Z,13.27
2022-10-26T08:38:30.174Z,13.31
2022-10-26T08:39:32.720Z,13.36
2022-10-26T08:40:38.781Z,13.41
2022-10-26T08:41:47.601Z,13.46
2022-10-26T08:42:55.553Z,13.52
2022-10-26T08:44:05.169Z,13.58
2022-10-26T08:45:17.875Z,13.66
2022-10-26T08:46:30.559Z,13.74
2022-10-26T08:47:46.952Z,13.81
2022-10-26T08:49:20.612Z,13.91
2022-10-26T08:50:45.478Z,14.00
2022-10-26T08:51:51.141Z,14.10
2022-10-26T08:53:03.857Z,14.17
2022-10-26T08:54:10.586Z,14.25
2022-10-26T08:55:18.107Z,14.36
2022-10-26T08:56:24.991Z,14.46
2022-10-26T08:57:39.805Z,14.57
2022-10-26T08:59:05.231Z,14.67
2022-10-26T09:00:13.003Z,14.80
2022-10-26T09:01:15.677Z,14.89
2022-10-26T09:02:18.202Z,14.99
2022-10-26T09:03:20.544Z,15.08
2022-10-26T09:04:31.244Z,15.19
2022-10-26T09:05:44.458Z,15.27
2022-10-26T09:07:03.017Z,15.35
2022-10-26T09:08:14.743Z,15.44
2022-10-26T09:09:29.436Z,15.52
2022-10-26T09:10:50.291Z,15.61
2022-10-26T09:11:55.443Z,15.69
2022-10-26T09:13:19.712Z,15.79
2022-10-26T09:14:43.762Z,15.86
2022-10-26T09:16:05.543Z,15.96
2022-10-26T09:17:20.242Z,16.03
2022-10-26T09:20:27.135Z,16.16
2022-10-26T09:21:40.220Z,16.20
2022-10-26T09:23:11.732Z,16.25
2022-10-26T09:24:31.373Z,16.27
2022-10-26T09:25:40.153Z,16.33
2022-10-26T09:26:45.050Z,16.36
2022-10-26T09:27:51.210Z,16.38
2022-10-26T09:28:54.740Z,16.40
2022-10-26T09:30:05.177Z,16.41
2022-10-26T09:31:15.281Z,16.44
2022-10-26T09:32:20.773Z,16.50
2022-10-26T09:33:25.285Z,16.50
2022-10-26T09:34:44.272Z,16.53
2022-10-26T09:35:50.311Z,16.54
2022-10-26T09:36:57.211Z,16.54
2022-10-26T09:38:24.170Z,16.58
2022-10-26T09:39:58.558Z,16.60
2022-10-26T09:41:13.047Z,16.61
2022-10-26T09:42:29.337Z,16.63
2022-10-26T09:43:37.682Z,16.66
2022-10-26T09:44:47.859Z,16.70
2022-10-26T09:45:52.894Z,16.70
2022-10-26T09:47:29.303Z,16.73
2022-10-26T09:48:39.609Z,16.77
2022-10-26T09:49:51.201Z,16.79
2022-10-26T09:50:53.542Z,16.82
2022-10-26T09:51:56.104Z,16.84
2022-10-26T09:52:58.430Z,16.86
2022-10-26T09:54:01.978Z,16.90
2022-10-26T09:55:04.417Z,16.91
2022-10-26T09:56:10.463Z,16.95
2022-10-26T09:57:18.779Z,16.96
2022-10-26T09:58:27.559Z,16.95
2022-10-26T09:59:33.890Z,16.97
2022-10-26T10:00:37.724Z,16.98
2022-10-26T10:01:42.349Z,16.98
2022-10-26T10:02:50.343Z,16.98
2022-10-26T10:04:16.795Z,16.99
2022-10-26T10:05:52.741Z,16.99
2022-10-26T10:07:01.347Z,16.99
2022-10-26T10:08:22.481Z,17.01
2022-10-26T10:09:24.881Z,17.01
2022-10-26T10:10:27.182Z,17.03
2022-10-26T10:11:45.395Z,17.03
2022-10-26T10:12:51.340Z,17.04
2022-10-26T10:13:53.811Z,17.05
2022-10-26T10:14:59.136Z,17.05
2022-10-26T10:16:06.057Z,17.06
2022-10-26T10:17:19.640Z,17.07
2022-10-26T10:18:23.957Z,17.09
2022-10-26T10:19:27.433Z,17.11
2022-10-26T10:20:33.820Z,17.10
2022-10-26T10:21:37.699Z,17.10
2022-10-26T10:22:54.046Z,17.15
2022-10-26T10:23:57.089Z,17.14
2022-10-26T10:25:01.398Z,17.16
2022-10-26T10:26:13.604Z,17.18
2022-10-26T10:27:15.817Z,17.17
2022-10-26T10:28:26.794Z,17.18
2022-10-26T10:29:31.790Z,17.18
2022-10-26T10:30:34.334Z,17.19
2022-10-26T10:31:36.545Z,17.18
2022-10-26T10:32:41.293Z,17.18
2022-10-26T10:33:45.465Z,17.18
2022-10-26T10:34:50.276Z,17.19
2022-10-26T10:35:52.892Z,17.18
2022-10-26T10:36:56.008Z,17.18
2022-10-26T10:37:58.646Z,17.19
2022-10-26T10:39:01.238Z,17.21
2022-10-26T10:40:09.068Z,17.22
2022-10-26T10:41:30.848Z,17.24
2022-10-26T10:42:39.676Z,17.25
2022-10-26T10:43:52.356Z,17.26
2022-10-26T10:44:56.232Z,17.28
2022-10-26T10:45:59.736Z,17.29
2022-10-26T10:47:07.156Z,17.31
2022-10-26T10:48:13.437Z,17.31
2022-10-26T10:49:28.447Z,17.33
2022-10-26T10:50:32.591Z,17.34
2022-10-26T10:51:42.898Z,17.35
2022-10-26T10:52:45.686Z,17.36
2022-10-26T10:53:59.201Z,17.36
2022-10-26T10:55:13.719Z,17.38
2022-10-26T10:56:47.027Z,17.40
2022-10-26T10:58:13.535Z,17.43
2022-10-26T10:59:35.673Z,17.45
2022-10-26T11:00:38.325Z,17.47
2022-10-26T11:01:49.030Z,17.49
2022-10-26T11:03:28.937Z,17.50
2022-10-26T11:04:52.650Z,17.53
2022-10-26T11:06:22.835Z,17.55
2022-10-26T11:07:28.255Z,17.56
2022-10-26T11:08:40.199Z,17.60
2022-10-26T11:09:45.996Z,17.61
2022-10-26T11:11:00.651Z,17.64
2022-10-26T11:12:17.066Z,17.65
2022-10-26T11:13:29.483Z,17.68
2022-10-26T11:14:39.332Z,17.69
2022-10-26T11:15:45.527Z,17.71
2022-10-26T11:16:57.492Z,17.74
2022-10-26T11:18:12.186Z,17.75
2022-10-26T11:19:32.751Z,17.77
2022-10-26T11:20:42.416Z,17.79
2022-10-26T11:21:49.097Z,17.82
2022-10-26T11:23:02.546Z,17.84
2022-10-26T11:24:20.216Z,17.86
2022-10-26T11:25:41.149Z,17.88
2022-10-26T11:26:56.028Z,17.91
2022-10-26T11:28:04.737Z,17.91
2022-10-26T11:29:21.384Z,17.94
2022-10-26T11:30:27.800Z,17.95
2022-10-26T11:31:41.893Z,17.99
2022-10-26T11:32:53.344Z,17.99
2022-10-26T11:34:10.474Z,17.99
2022-10-26T11:35:46.749Z,18.00
2022-10-26T11:36:56.862Z,18.01
2022-10-26T11:38:14.000Z,18.02
2022-10-26T11:39:43.999Z,18.03
2022-10-26T11:41:07.078Z,18.05
2022-10-26T11:42:30.442Z,18.05
2022-10-26T11:43:41.399Z,18.07
2022-10-26T11:44:52.878Z,18.08
2022-10-26T11:46:35.059Z,18.09
2022-10-26T11:47:55.115Z,18.10
2022-10-26T11:49:03.221Z,18.11
2022-10-26T11:50:22.885Z,18.12
2022-10-26T11:51:57.802Z,18.15
2022-10-26T11:53:08.571Z,18.16
2022-10-26T11:55:23.652Z,18.17
2022-10-26T11:56:33.805Z,18.17
2022-10-26T11:57:37.966Z,18.18
2022-10-26T11:58:41.347Z,18.21
2022-10-26T11:59:52.052Z,18.22
2022-10-26T12:01:11.628Z,18.23
2022-10-26T12:02:25.687Z,18.24
2022-10-26T12:03:35.528Z,18.24
2022-10-26T12:04:42.818Z,18.25
2022-10-26T12:05:50.201Z,18.26
2022-10-26T12:06:55.624Z,18.27
2022-10-26T12:08:03.061Z,18.28
2022-10-26T12:09:13.088Z,18.31
2022-10-26T12:10:35.194Z,18.32
2022-10-26T12:11:56.216Z,18.34
2022-10-26T12:13:27.510Z,18.36
2022-10-26T12:14:39.271Z,18.38
2022-10-26T12:16:04.736Z,18.40
2022-10-26T12:17:17.275Z,18.41
2022-10-26T12:19:00.781Z,18.42
2022-10-26T12:20:14.991Z,18.43
2022-10-26T12:21:18.170Z,18.44
2022-10-26T12:22:26.071Z,18.47
2022-10-26T12:23:41.032Z,18.47
2022-10-26T12:25:20.203Z,18.49
2022-10-26T12:26:28.383Z,18.51
2022-10-26T12:27:39.451Z,18.51
2022-10-26T12:28:42.228Z,18.52
2022-10-26T12:29:49.414Z,18.53
2022-10-26T12:30:51.674Z,18.53
2022-10-26T12:31:54.029Z,18.54
2022-10-26T12:33:20.362Z,18.56
2022-10-26T12:34:25.496Z,18.57
2022-10-26T12:35:37.980Z,18.59
2022-10-26T12:36:50.241Z,18.59
2022-10-26T12:37:52.785Z,18.60
2022-10-26T12:39:01.785Z,18.61
2022-10-26T12:40:32.656Z,18.61
2022-10-26T12:41:39.295Z,18.62
2022-10-26T12:42:41.826Z,18.63
2022-10-26T12:44:47.090Z,18.64
2022-10-26T12:46:14.066Z,18.65
2022-10-26T12:47:28.366Z,18.66
2022-10-26T12:48:47.825Z,18.65
2022-10-26T12:50:23.737Z,18.68
2022-10-26T12:51:25.878Z,18.68
2022-10-26T12:52:31.521Z,18.68
2022-10-26T12:53:34.564Z,18.69
2022-10-26T12:54:53.902Z,18.70
2022-10-26T12:56:06.098Z,18.70
2022-10-26T12:57:22.759Z,18.70
2022-10-26T12:58:50.688Z,18.70
2022-10-26T13:00:02.345Z,18.70
2022-10-26T13:01:07.590Z,18.71
2022-10-26T13:02:22.149Z,18.71
2022-10-26T13:03:35.107Z,18.71
2022-10-26T13:04:58.881Z,18.71
2022-10-26T13:06:19.475Z,18.70
2022-10-26T13:07:25.098Z,18.71
2022-10-26T13:08:27.764Z,18.71
2022-10-26T13:09:33.289Z,18.70
2022-10-26T13:10:38.224Z,18.70
2022-10-26T13:11:47.846Z,18.70
2022-10-26T13:12:53.699Z,18.68
2022-10-26T13:14:01.511Z,18.69
2022-10-26T13:15:09.828Z,18.69
2022-10-26T13:16:16.617Z,18.69
2022-10-26T13:17:26.891Z,18.68
2022-10-26T13:18:30.573Z,18.69
2022-10-26T13:19:49.074Z,18.69
2022-10-26T13:21:03.582Z,18.69
2022-10-26T13:22:05.874Z,18.68
2022-10-26T13:23:20.921Z,18.69
2022-10-26T13:24:26.570Z,18.69
2022-10-26T13:25:30.942Z,18.68
2022-10-26T13:27:05.032Z,18.68
2022-10-26T13:28:31.841Z,18.67
2022-10-26T13:30:09.104Z,18.68
2022-10-26T13:31:14.316Z,18.67
2022-10-26T13:32:17.711Z,18.67
2022-10-26T13:33:23.570Z,18.66
2022-10-26T13:34:30.065Z,18.67
2022-10-26T13:35:32.759Z,18.66
2022-10-26T13:37:03.725Z,18.67
2022-10-26T13:38:11.394Z,18.67
2022-10-26T13:39:19.506Z,18.66
2022-10-26T13:40:25.509Z,18.67
2022-10-26T13:41:38.100Z,18.66
2022-10-26T13:42:46.751Z,18.65
2022-10-26T13:43:51.471Z,18.65
2022-10-26T13:45:06.884Z,18.65
2022-10-26T13:46:23.240Z,18.65
2022-10-26T13:47:59.121Z,18.65
2022-10-26T13:49:08.915Z,18.65
2022-10-26T13:50:18.355Z,18.65
2022-10-26T13:51:30.950Z,18.65
2022-10-26T13:52:39.697Z,18.64
2022-10-26T13:53:50.559Z,18.65
2022-10-26T13:55:05.389Z,18.64
2022-10-26T13:56:25.125Z,18.65
2022-10-26T13:57:43.032Z,18.64
2022-10-26T13:58:54.817Z,18.64
2022-10-26T14:00:03.006Z,18.64
2022-10-26T14:01:22.311Z,18.64
2022-10-26T14:02:27.032Z,18.64
2022-10-26T14:03:30.701Z,18.65
2022-10-26T14:04:32.925Z,18.64
2022-10-26T14:05:35.150Z,18.64
2022-10-26T14:06:39.552Z,18.63
2022-10-26T14:07:48.168Z,18.63
2022-10-26T14:08:54.127Z,18.61
2022-10-26T14:09:58.159Z,18.62
2022-10-26T14:11:00.584Z,18.62
2022-10-26T14:12:03.021Z,18.61
2022-10-26T14:13:12.692Z,18.61
2022-10-26T14:14:20.239Z,18.62
2022-10-26T14:15:32.639Z,18.62
2022-10-26T14:16:35.932Z,18.61
2022-10-26T14:17:38.224Z,18.62
2022-10-26T14:18:41.002Z,18.62
2022-10-26T14:19:44.847Z,18.62
2022-10-26T14:21:12.459Z,18.62
2022-10-26T14:22:41.371Z,18.62
2022-10-26T14:23:50.077Z,18.62
2022-10-26T14:24:57.884Z,18.61
2022-10-26T14:26:00.265Z,18.61
2022-10-26T14:27:02.682Z,18.60
2022-10-26T14:28:21.281Z,18.60
2022-10-26T14:29:26.444Z,18.59
2022-10-26T14:30:31.962Z,18.59
2022-10-26T14:31:35.852Z,18.59
2022-10-26T14:32:37.998Z,18.57
2022-10-26T14:33:40.345Z,18.58
2022-10-26T14:34:42.562Z,18.56
2022-10-26T14:35:45.007Z,18.57
2022-10-26T14:36:53.045Z,18.57
2022-10-26T14:38:05.918Z,18.55
2022-10-26T14:41:26.645Z,18.54
2022-10-26T14:42:33.067Z,18.52
2022-10-26T14:43:35.320Z,18.51
2022-10-26T14:44:37.742Z,18.51
2022-10-26T14:45:48.594Z,18.52
2022-10-26T14:46:52.556Z,18.52
2022-10-26T14:47:55.433Z,18.51
2022-10-26T14:49:00.005Z,18.50
2022-10-26T14:50:03.622Z,18.50
2022-10-26T14:51:09.531Z,18.50
2022-10-26T14:52:20.353Z,18.51
2022-10-26T14:53:23.037Z,18.51
2022-10-26T14:54:27.907Z,18.51
2022-10-26T14:55:31.728Z,18.50
2022-10-26T14:56:37.024Z,18.49
2022-10-26T14:57:42.358Z,18.51
2022-10-26T14:58:44.626Z,18.50
2022-10-26T15:00:01.052Z,18.50